createdAt,value
2022-12-29T00:00:26.575Z,76.75
2022-12-29T00:01:02.401Z,76.53
2022-12-29T00:01:35.481Z,76.73
2022-12-29T00:02:07.370Z,76.52
2022-12-29T00:02:39.372Z,76.45
2022-12-29T00:03:11.429Z,76.58
2022-12-29T00:03:46.265Z,76.90
2022-12-29T00:04:18.171Z,77.46
2022-12-29T00:04:53.312Z,77.40
2022-12-29T00:05:25.257Z,77.15
2022-12-29T00:05:58.521Z,76.85
2022-12-29T00:06:31.620Z,76.54
2022-12-29T00:07:05.441Z,76.90
2022-12-29T00:07:37.503Z,76.88
2022-12-29T00:08:09.333Z,76.99
2022-12-29T00:08:41.690Z,76.82
2022-12-29T00:09:14.067Z,76.86
2022-12-29T00:09:45.992Z,76.70
2022-12-29T00:10:17.932Z,76.69
2022-12-29T00:10:49.792Z,76.83
2022-12-29T00:11:23.873Z,76.80
2022-12-29T00:11:56.236Z,76.33
2022-12-29T00:12:48.053Z,76.44
2022-12-29T00:13:38.541Z,76.05
2022-12-29T00:14:30.580Z,75.96
2022-12-29T00:15:21.055Z,76.36
2022-12-29T00:15:52.917Z,76.65
2022-12-29T00:16:25.343Z,76.76
2022-12-29T00:16:58.030Z,76.46
2022-12-29T00:17:30.537Z,76.40
2022-12-29T00:18:02.463Z,76.30
2022-12-29T00:18:34.284Z,76.44
2022-12-29T00:19:06.122Z,76.57
2022-12-29T00:19:57.789Z,76.74
2022-12-29T00:20:48.356Z,77.36
2022-12-29T00:21:42.144Z,77.48
2022-12-29T00:22:34.327Z,77.40
2022-12-29T00:23:24.795Z,77.15
2022-12-29T00:24:28.763Z,77.88
2022-12-29T00:25:06.401Z,77.83
2022-12-29T00:25:56.808Z,78.01
2022-12-29T00:26:47.229Z,77.86
2022-12-29T00:27:38.220Z,77.64
2022-12-29T00:28:29.101Z,77.37
2022-12-29T00:29:21.228Z,77.61
2022-12-29T00:30:12.535Z,77.54
2022-12-29T00:31:04.544Z,77.43
2022-12-29T00:31:55.057Z,76.78
2022-12-29T00:32:46.006Z,76.64
2022-12-29T00:33:39.501Z,76.80
2022-12-29T00:34:30.873Z,77.26
2022-12-29T00:35:11.863Z,77.11
2022-12-29T00:35:53.117Z,76.76
2022-12-29T00:36:34.307Z,76.91
2022-12-29T00:37:06.702Z,76.74
2022-12-29T00:38:05.045Z,76.90
2022-12-29T00:38:58.581Z,76.63
2022-12-29T00:39:49.739Z,75.99
2022-12-29T00:40:40.153Z,76.02
2022-12-29T00:41:30.523Z,76.14
2022-12-29T00:42:26.298Z,76.49
2022-12-29T00:43:17.389Z,76.69
2022-12-29T00:44:10.924Z,76.68
2022-12-29T00:44:42.784Z,76.73
2022-12-29T00:45:15.076Z,76.53
2022-12-29T00:45:46.982Z,76.54
2022-12-29T00:46:20.115Z,76.97
2022-12-29T00:46:52.399Z,77.07
2022-12-29T00:47:24.564Z,76.92
2022-12-29T00:47:56.431Z,76.51
2022-12-29T00:48:47.447Z,76.19
2022-12-29T00:49:31.536Z,76.04
2022-12-29T00:50:03.541Z,75.68
2022-12-29T00:50:35.385Z,75.62
2022-12-29T00:51:08.093Z,75.78
2022-12-29T00:51:39.959Z,76.70
2022-12-29T00:52:13.331Z,76.39
2022-12-29T00:52:45.525Z,76.25
2022-12-29T00:53:17.397Z,76.54
2022-12-29T00:53:49.848Z,76.64
2022-12-29T00:54:21.855Z,77.14
2022-12-29T00:54:53.717Z,77.54
2022-12-29T00:55:25.518Z,77.35
2022-12-29T00:55:57.419Z,77.46
2022-12-29T00:56:29.358Z,77.76
2022-12-29T00:57:02.524Z,78.04
2022-12-29T00:57:34.559Z,77.94
2022-12-29T00:58:06.535Z,77.34
2022-12-29T00:58:39.237Z,77.46
2022-12-29T00:59:13.906Z,77.17
2022-12-29T00:59:46.311Z,77.08
2022-12-29T01:00:21.215Z,77.28
2022-12-29T01:00:53.164Z,76.85
2022-12-29T01:01:25.135Z,77.27
2022-12-29T01:01:57.775Z,77.53
2022-12-29T01:02:29.863Z,77.60
2022-12-29T01:03:02.047Z,77.61
2022-12-29T01:03:35.569Z,77.55
2022-12-29T01:04:08.517Z,77.46
2022-12-29T01:04:40.720Z,77.29
2022-12-29T01:05:14.229Z,77.02
2022-12-29T01:05:46.169Z,77.69
2022-12-29T01:06:18.158Z,77.59
2022-12-29T01:06:51.064Z,77.33
2022-12-29T01:07:23.135Z,77.81
2022-12-29T01:07:55.073Z,78.10
2022-12-29T01:08:31.079Z,78.30
2022-12-29T01:09:22.494Z,78.16
2022-12-29T01:10:13.407Z,78.63
2022-12-29T01:10:45.270Z,78.35
2022-12-29T01:11:17.519Z,77.93
2022-12-29T01:11:50.259Z,77.68
2022-12-29T01:12:41.576Z,77.40
2022-12-29T01:13:14.223Z,77.59
2022-12-29T01:13:46.216Z,77.58
2022-12-29T01:14:19.778Z,77.40
2022-12-29T01:14:51.695Z,77.51
2022-12-29T01:15:25.451Z,77.25
2022-12-29T01:15:57.751Z,77.36
2022-12-29T01:16:29.986Z,77.21
2022-12-29T01:17:01.947Z,77.22
2022-12-29T01:17:33.886Z,77.80
2022-12-29T01:18:06.481Z,78.04
2022-12-29T01:18:38.345Z,77.83
2022-12-29T01:19:10.510Z,77.66
2022-12-29T01:19:42.388Z,77.26
2022-12-29T01:20:14.632Z,77.04
2022-12-29T01:20:46.933Z,77.15
2022-12-29T01:21:18.827Z,77.20
2022-12-29T01:21:51.312Z,77.28
2022-12-29T01:22:24.387Z,77.13
2022-12-29T01:22:56.282Z,77.23
2022-12-29T01:23:29.055Z,77.10
2022-12-29T01:24:00.943Z,77.34
2022-12-29T01:24:32.834Z,77.12
2022-12-29T01:25:05.916Z,77.65
2022-12-29T01:25:38.971Z,77.58
2022-12-29T01:26:12.594Z,76.87
2022-12-29T01:26:44.671Z,77.03
2022-12-29T01:27:16.591Z,77.02
2022-12-29T01:27:48.450Z,76.92
2022-12-29T01:28:25.757Z,76.98
2022-12-29T01:28:58.059Z,77.07
2022-12-29T01:29:29.908Z,76.83
2022-12-29T01:30:01.764Z,76.51
2022-12-29T01:30:33.888Z,76.47
2022-12-29T01:31:05.918Z,76.72
2022-12-29T01:31:38.502Z,76.54
2022-12-29T01:32:10.412Z,76.14
2022-12-29T01:32:44.068Z,75.95
2022-12-29T01:33:16.132Z,75.92
2022-12-29T01:33:48.022Z,75.93
2022-12-29T01:34:19.928Z,75.97
2022-12-29T01:34:51.795Z,75.63
2022-12-29T01:35:23.665Z,75.85
2022-12-29T01:35:55.546Z,75.51
2022-12-29T01:36:27.464Z,75.66
2022-12-29T01:36:59.652Z,75.78
2022-12-29T01:37:31.690Z,75.80
2022-12-29T01:38:03.677Z,75.64
2022-12-29T01:38:37.184Z,75.52
2022-12-29T01:39:09.029Z,75.40
2022-12-29T01:39:40.875Z,75.42
2022-12-29T01:40:13.169Z,75.21
2022-12-29T01:40:47.307Z,75.46
2022-12-29T01:41:19.604Z,75.30
2022-12-29T01:41:51.553Z,75.47
2022-12-29T01:42:27.166Z,75.62
2022-12-29T01:42:59.031Z,75.98
2022-12-29T01:43:48.661Z,75.93
2022-12-29T01:44:48.316Z,76.03
2022-12-29T01:45:20.231Z,76.29
2022-12-29T01:45:55.082Z,75.72
2022-12-29T01:46:40.325Z,75.45
2022-12-29T01:47:13.308Z,75.40
2022-12-29T01:47:54.627Z,75.20
2022-12-29T01:48:26.865Z,75.28
2022-12-29T01:49:03.649Z,75.59
2022-12-29T01:49:35.911Z,75.38
2022-12-29T01:50:19.613Z,75.38
2022-12-29T01:50:54.312Z,75.65
2022-12-29T01:51:28.438Z,75.70
2022-12-29T01:52:08.916Z,75.83
2022-12-29T01:52:47.239Z,75.84
2022-12-29T01:53:25.444Z,75.46
2022-12-29T01:54:01.241Z,75.35
2022-12-29T01:54:43.099Z,75.52
2022-12-29T01:55:15.769Z,75.81
2022-12-29T01:55:55.145Z,76.22
2022-12-29T01:56:27.825Z,76.09
2022-12-29T01:57:04.331Z,76.53
2022-12-29T01:57:41.141Z,76.78
2022-12-29T01:58:15.910Z,76.70
2022-12-29T01:58:54.741Z,77.30
2022-12-29T01:59:32.112Z,77.51
2022-12-29T02:00:10.526Z,77.36
2022-12-29T02:00:44.885Z,77.59
2022-12-29T02:01:20.784Z,78.00
2022-12-29T02:01:52.829Z,77.81
2022-12-29T02:02:25.811Z,77.93
2022-12-29T02:02:57.844Z,78.12
2022-12-29T02:03:33.071Z,78.37
2022-12-29T02:04:05.467Z,78.62
2022-12-29T02:04:45.331Z,78.77
2022-12-29T02:05:34.915Z,78.47
2022-12-29T02:06:16.993Z,77.54
2022-12-29T02:06:58.219Z,77.04
2022-12-29T02:07:30.163Z,76.82
2022-12-29T02:08:03.032Z,76.70
2022-12-29T02:08:35.001Z,76.43
2022-12-29T02:09:06.872Z,76.09
2022-12-29T02:09:38.780Z,75.63
2022-12-29T02:10:10.802Z,75.74
2022-12-29T02:10:44.042Z,76.24
2022-12-29T02:11:17.531Z,76.66
2022-12-29T02:11:49.717Z,76.51
2022-12-29T02:12:25.066Z,76.49
2022-12-29T02:12:57.415Z,76.32
2022-12-29T02:13:29.891Z,76.33
2022-12-29T02:14:03.774Z,76.08
2022-12-29T02:14:35.923Z,75.89
2022-12-29T02:15:08.606Z,76.02
2022-12-29T02:15:57.500Z,76.29
2022-12-29T02:16:57.169Z,76.02
2022-12-29T02:17:46.393Z,76.13
2022-12-29T02:18:55.075Z,76.01
2022-12-29T02:19:30.574Z,75.57
2022-12-29T02:20:56.027Z,76.13
2022-12-29T02:21:30.821Z,75.42
2022-12-29T02:22:11.883Z,75.59
2022-12-29T02:22:58.968Z,76.03
2022-12-29T02:23:48.782Z,75.89
2022-12-29T02:24:27.049Z,75.62
2022-12-29T02:25:06.334Z,75.29
2022-12-29T02:25:45.052Z,75.69
2022-12-29T02:26:34.863Z,75.70
2022-12-29T02:27:06.688Z,75.67
2022-12-29T02:28:04.055Z,75.56
2022-12-29T02:28:55.347Z,75.12
2022-12-29T02:29:42.310Z,76.15
2022-12-29T02:30:17.747Z,76.86
2022-12-29T02:30:59.058Z,77.28
2022-12-29T02:31:47.656Z,77.03
2022-12-29T02:32:45.825Z,77.14
2022-12-29T02:33:17.628Z,77.37
2022-12-29T02:33:50.867Z,77.22
2022-12-29T02:34:55.316Z,77.07
2022-12-29T02:35:39.298Z,77.27
2022-12-29T02:36:20.504Z,77.48
2022-12-29T02:37:08.505Z,77.76
2022-12-29T02:37:47.911Z,77.77
2022-12-29T02:38:42.536Z,77.96
2022-12-29T02:39:51.302Z,77.60
2022-12-29T02:40:23.123Z,77.49
2022-12-29T02:41:28.108Z,78.05
2022-12-29T02:42:05.172Z,78.15
2022-12-29T02:43:11.946Z,77.68
2022-12-29T02:43:59.517Z,77.82
2022-12-29T02:44:55.041Z,78.37
2022-12-29T02:45:33.004Z,78.18
2022-12-29T02:46:29.046Z,78.35
2022-12-29T02:47:25.138Z,78.37
2022-12-29T02:48:32.439Z,78.85
2022-12-29T02:49:23.709Z,79.05
2022-12-29T02:50:05.209Z,78.83
2022-12-29T02:50:52.364Z,78.72
2022-12-29T02:51:32.704Z,78.38
2022-12-29T02:52:11.090Z,78.32
2022-12-29T02:52:59.267Z,78.38
2022-12-29T02:53:53.597Z,78.01
2022-12-29T02:54:44.276Z,77.94
2022-12-29T02:55:16.786Z,78.01
2022-12-29T02:55:50.076Z,77.35
2022-12-29T02:56:22.713Z,77.04
2022-12-29T02:56:54.830Z,76.85
2022-12-29T02:57:27.498Z,76.83
2022-12-29T02:58:13.705Z,76.87
2022-12-29T02:58:46.183Z,76.49
2022-12-29T02:59:18.374Z,76.54
2022-12-29T02:59:58.417Z,76.62
2022-12-29T03:00:31.110Z,77.01
2022-12-29T03:01:11.852Z,77.54
2022-12-29T03:02:18.264Z,77.71
2022-12-29T03:02:59.245Z,77.30
2022-12-29T03:03:36.973Z,77.08
2022-12-29T03:04:11.492Z,77.42
2022-12-29T03:05:09.625Z,78.24
2022-12-29T03:06:00.277Z,78.00
2022-12-29T03:06:53.218Z,77.41
2022-12-29T03:08:03.172Z,77.77
2022-12-29T03:09:18.306Z,78.13
2022-12-29T03:10:15.279Z,77.94
2022-12-29T03:10:53.505Z,78.16
2022-12-29T03:11:52.199Z,78.47
2022-12-29T03:13:00.296Z,78.30
2022-12-29T03:14:04.102Z,78.66
2022-12-29T03:15:22.162Z,78.53
2022-12-29T03:16:42.759Z,78.93
2022-12-29T03:17:36.629Z,78.34
2022-12-29T03:18:48.517Z,79.14
2022-12-29T03:19:34.416Z,79.84
2022-12-29T03:20:09.865Z,80.10
2022-12-29T03:21:01.599Z,80.29
2022-12-29T03:22:14.284Z,80.43
2022-12-29T03:22:52.172Z,80.41
2022-12-29T03:23:28.084Z,80.47
2022-12-29T03:24:00.114Z,80.09
2022-12-29T03:24:38.130Z,80.46
2022-12-29T03:25:22.050Z,80.94
2022-12-29T03:25:58.285Z,81.07
2022-12-29T03:26:30.985Z,81.19
2022-12-29T03:27:07.529Z,81.26
2022-12-29T03:27:46.742Z,81.05
2022-12-29T03:28:28.041Z,81.36
2022-12-29T03:29:00.057Z,81.87
2022-12-29T03:29:41.143Z,81.99
2022-12-29T03:30:13.962Z,81.58
2022-12-29T03:30:47.446Z,81.54
2022-12-29T03:31:23.659Z,81.58
2022-12-29T03:31:57.537Z,81.35
2022-12-29T03:32:42.970Z,81.19
2022-12-29T03:33:24.115Z,80.81
2022-12-29T03:33:57.761Z,80.46
2022-12-29T03:34:31.781Z,79.88
2022-12-29T03:35:05.579Z,79.63
2022-12-29T03:35:40.208Z,80.33
2022-12-29T03:36:19.529Z,80.97
2022-12-29T03:37:16.050Z,80.83
2022-12-29T03:38:00.055Z,80.55
2022-12-29T03:38:36.843Z,80.42
2022-12-29T03:39:13.311Z,80.65
2022-12-29T03:39:46.008Z,80.87
2022-12-29T03:40:20.294Z,81.33
2022-12-29T03:40:58.803Z,81.40
2022-12-29T03:41:33.959Z,81.69
2022-12-29T03:42:14.817Z,81.67
2022-12-29T03:42:48.837Z,81.50
2022-12-29T03:43:21.132Z,81.41
2022-12-29T03:43:53.375Z,81.63
2022-12-29T03:44:45.852Z,81.28
2022-12-29T03:45:18.474Z,81.01
2022-12-29T03:45:51.882Z,80.75
2022-12-29T03:46:23.811Z,80.13
2022-12-29T03:46:55.889Z,80.51
2022-12-29T03:47:28.013Z,80.30
2022-12-29T03:47:59.989Z,80.07
2022-12-29T03:48:33.887Z,79.94
2022-12-29T03:49:06.651Z,79.66
2022-12-29T03:49:38.795Z,80.19
2022-12-29T03:50:13.087Z,80.62
2022-12-29T03:50:45.293Z,80.41
2022-12-29T03:51:17.260Z,80.17
2022-12-29T03:51:52.022Z,79.89
2022-12-29T03:52:24.654Z,79.75
2022-12-29T03:52:57.252Z,79.49
2022-12-29T03:53:29.132Z,79.95
2022-12-29T03:54:01.465Z,79.85
2022-12-29T03:54:33.970Z,79.70
2022-12-29T03:55:06.895Z,79.52
2022-12-29T03:55:39.882Z,79.45
2022-12-29T03:56:12.982Z,79.20
2022-12-29T03:56:44.927Z,79.01
2022-12-29T03:57:19.329Z,78.88
2022-12-29T03:57:51.835Z,78.77
2022-12-29T03:58:25.533Z,78.65
2022-12-29T03:58:58.909Z,78.89
2022-12-29T03:59:33.236Z,79.04
2022-12-29T04:00:07.590Z,78.91
2022-12-29T04:00:46.907Z,78.53
2022-12-29T04:01:19.256Z,79.16
2022-12-29T04:01:51.471Z,79.43
2022-12-29T04:02:24.957Z,79.37
2022-12-29T04:02:57.892Z,79.09
2022-12-29T04:03:30.030Z,79.11
2022-12-29T04:04:01.914Z,79.05
2022-12-29T04:04:33.976Z,79.42
2022-12-29T04:05:06.631Z,79.44
2022-12-29T04:05:39.021Z,79.60
2022-12-29T04:06:10.877Z,79.50
2022-12-29T04:06:43.689Z,79.15
2022-12-29T04:07:15.549Z,79.55
2022-12-29T04:07:47.756Z,79.96
2022-12-29T04:08:19.986Z,80.59
2022-12-29T04:08:53.654Z,80.46
2022-12-29T04:09:25.825Z,80.59
2022-12-29T04:09:58.161Z,80.71
2022-12-29T04:10:30.266Z,80.57
2022-12-29T04:11:02.999Z,80.96
2022-12-29T04:11:34.903Z,81.47
2022-12-29T04:12:07.419Z,81.40
2022-12-29T04:12:40.042Z,81.56
2022-12-29T04:13:12.448Z,81.76
2022-12-29T04:13:44.483Z,81.80
2022-12-29T04:14:17.199Z,81.52
2022-12-29T04:14:50.439Z,81.26
2022-12-29T04:15:25.294Z,80.88
2022-12-29T04:15:58.575Z,80.42
2022-12-29T04:16:30.859Z,80.33
2022-12-29T04:17:02.839Z,80.66
2022-12-29T04:17:35.469Z,80.89
2022-12-29T04:18:07.664Z,81.05
2022-12-29T04:18:39.865Z,81.03
2022-12-29T04:19:12.122Z,80.89
2022-12-29T04:19:44.057Z,80.87
2022-12-29T04:20:34.694Z,81.01
2022-12-29T04:21:07.727Z,81.33
2022-12-29T04:21:40.033Z,81.27
2022-12-29T04:22:12.702Z,81.17
2022-12-29T04:22:45.475Z,80.97
2022-12-29T04:23:17.420Z,80.72
2022-12-29T04:23:50.759Z,80.83
2022-12-29T04:24:22.782Z,80.84
2022-12-29T04:24:54.933Z,80.54
2022-12-29T04:25:26.855Z,80.41
2022-12-29T04:25:59.588Z,80.84
2022-12-29T04:26:32.553Z,81.08
2022-12-29T04:27:05.841Z,80.98
2022-12-29T04:27:37.946Z,80.72
2022-12-29T04:28:10.175Z,80.56
2022-12-29T04:28:42.914Z,80.45
2022-12-29T04:29:15.240Z,80.15
2022-12-29T04:29:47.534Z,79.95
2022-12-29T04:30:19.785Z,80.15
2022-12-29T04:30:52.691Z,80.15
2022-12-29T04:31:25.052Z,80.33
2022-12-29T04:31:57.031Z,80.35
2022-12-29T04:32:29.208Z,80.33
2022-12-29T04:33:04.016Z,80.34
2022-12-29T04:33:36.196Z,80.27
2022-12-29T04:34:08.437Z,80.15
2022-12-29T04:34:40.551Z,80.04
2022-12-29T04:35:12.374Z,80.00
2022-12-29T04:35:45.212Z,80.42
2022-12-29T04:36:17.232Z,81.18
2022-12-29T04:36:50.986Z,81.08
2022-12-29T04:37:23.965Z,81.01
2022-12-29T04:37:55.825Z,80.89
2022-12-29T04:38:27.980Z,80.81
2022-12-29T04:39:00.390Z,80.59
2022-12-29T04:39:33.957Z,80.67
2022-12-29T04:40:06.715Z,80.66
2022-12-29T04:40:43.866Z,80.96
2022-12-29T04:41:15.876Z,80.70
2022-12-29T04:41:49.431Z,80.46
2022-12-29T04:42:21.748Z,80.80
2022-12-29T04:42:55.859Z,80.77
2022-12-29T04:43:29.210Z,80.96
2022-12-29T04:44:01.925Z,80.83
2022-12-29T04:44:37.632Z,80.63
2022-12-29T04:45:14.373Z,80.84
2022-12-29T04:45:49.011Z,81.00
2022-12-29T04:46:21.276Z,81.08
2022-12-29T04:46:54.005Z,81.59
2022-12-29T04:47:27.409Z,81.42
2022-12-29T04:47:59.937Z,81.00
2022-12-29T04:48:32.528Z,80.90
2022-12-29T04:49:09.493Z,82.40
2022-12-29T04:49:42.882Z,83.35
2022-12-29T04:50:15.376Z,83.33
2022-12-29T04:50:49.725Z,82.78
2022-12-29T04:51:21.962Z,82.49
2022-12-29T04:51:55.341Z,82.23
2022-12-29T04:52:28.683Z,81.88
2022-12-29T04:53:01.025Z,81.96
2022-12-29T04:53:32.945Z,82.36
2022-12-29T04:54:05.433Z,82.08
2022-12-29T04:54:37.813Z,81.45
2022-12-29T04:55:10.479Z,81.13
2022-12-29T04:55:43.540Z,81.36
2022-12-29T04:56:15.479Z,81.28
2022-12-29T04:56:47.884Z,81.23
2022-12-29T04:57:20.732Z,81.06
2022-12-29T04:57:54.473Z,80.76
2022-12-29T04:58:26.736Z,80.85
2022-12-29T04:58:58.704Z,80.84
2022-12-29T04:59:32.211Z,80.82
2022-12-29T05:00:05.322Z,81.48
2022-12-29T05:00:37.749Z,82.43
2022-12-29T05:01:10.035Z,82.74
2022-12-29T05:01:43.616Z,82.68
2022-12-29T05:02:17.244Z,82.65
2022-12-29T05:02:51.238Z,82.28
2022-12-29T05:03:23.545Z,81.96
2022-12-29T05:03:55.483Z,81.90
2022-12-29T05:04:28.370Z,82.14
2022-12-29T05:05:00.724Z,82.10
2022-12-29T05:05:32.963Z,82.33
2022-12-29T05:06:05.867Z,82.84
2022-12-29T05:06:37.878Z,83.14
2022-12-29T05:07:10.663Z,83.10
2022-12-29T05:07:43.232Z,82.85
2022-12-29T05:08:15.430Z,83.15
2022-12-29T05:08:47.690Z,83.26
2022-12-29T05:09:20.177Z,83.08
2022-12-29T05:09:52.534Z,82.84
2022-12-29T05:10:24.717Z,83.15
2022-12-29T05:10:56.928Z,83.48
2022-12-29T05:11:28.850Z,83.16
2022-12-29T05:12:01.999Z,82.95
2022-12-29T05:12:36.811Z,83.21
2022-12-29T05:13:08.721Z,83.61
2022-12-29T05:13:40.940Z,83.63
2022-12-29T05:14:13.727Z,83.41
2022-12-29T05:14:46.613Z,83.46
2022-12-29T05:15:18.753Z,83.37
2022-12-29T05:15:52.810Z,82.95
2022-12-29T05:16:25.392Z,82.72
2022-12-29T05:16:57.856Z,82.87
2022-12-29T05:17:30.954Z,82.90
2022-12-29T05:18:02.827Z,82.69
2022-12-29T05:18:34.789Z,82.56
2022-12-29T05:19:06.791Z,82.56
2022-12-29T05:19:39.809Z,82.43
2022-12-29T05:20:12.381Z,82.52
2022-12-29T05:20:44.312Z,82.64
2022-12-29T05:21:16.487Z,82.98
2022-12-29T05:21:49.837Z,82.52
2022-12-29T05:22:21.923Z,82.47
2022-12-29T05:22:55.732Z,82.59
2022-12-29T05:23:27.666Z,82.55
2022-12-29T05:23:59.941Z,82.41
2022-12-29T05:24:32.051Z,82.06
2022-12-29T05:25:04.090Z,81.95
2022-12-29T05:25:38.375Z,82.23
2022-12-29T05:26:12.711Z,81.95
2022-12-29T05:26:44.923Z,82.43
2022-12-29T05:27:16.905Z,83.03
2022-12-29T05:27:49.513Z,83.31
2022-12-29T05:28:21.864Z,83.49
2022-12-29T05:28:53.796Z,83.60
2022-12-29T05:29:25.727Z,83.15
2022-12-29T05:29:58.421Z,82.78
2022-12-29T05:30:30.545Z,82.39
2022-12-29T05:31:03.076Z,82.19
2022-12-29T05:31:36.697Z,81.78
2022-12-29T05:32:09.670Z,81.83
2022-12-29T05:32:41.654Z,81.67
2022-12-29T05:33:13.622Z,81.50
2022-12-29T05:33:45.681Z,81.38
2022-12-29T05:34:17.892Z,81.52
2022-12-29T05:34:50.733Z,81.74
2022-12-29T05:35:23.218Z,82.02
2022-12-29T05:35:55.144Z,82.04
2022-12-29T05:36:34.421Z,81.58
2022-12-29T05:37:09.776Z,81.63
2022-12-29T05:37:43.173Z,82.02
2022-12-29T05:38:15.208Z,81.87
2022-12-29T05:38:47.600Z,81.64
2022-12-29T05:39:19.926Z,81.32
2022-12-29T05:39:53.810Z,81.16
2022-12-29T05:40:25.880Z,81.07
2022-12-29T05:40:59.697Z,81.01
2022-12-29T05:41:33.235Z,80.96
2022-12-29T05:42:06.486Z,80.89
2022-12-29T05:42:40.009Z,81.03
2022-12-29T05:43:12.626Z,81.06
2022-12-29T05:43:44.826Z,81.07
2022-12-29T05:44:17.033Z,80.90
2022-12-29T05:44:53.079Z,80.95
2022-12-29T05:45:25.575Z,81.48
2022-12-29T05:45:58.597Z,82.05
2022-12-29T05:46:30.729Z,82.59
2022-12-29T05:47:03.013Z,82.72
2022-12-29T05:47:36.013Z,85.41
2022-12-29T05:48:08.503Z,85.37
2022-12-29T05:48:40.450Z,84.58
2022-12-29T05:49:13.016Z,83.73
2022-12-29T05:49:47.758Z,82.04
2022-12-29T05:50:20.327Z,81.50
2022-12-29T05:51:01.284Z,81.24
2022-12-29T05:51:34.096Z,80.99
2022-12-29T05:52:06.154Z,88.23
2022-12-29T05:52:38.318Z,100.00
2022-12-29T05:53:10.573Z,100.00
2022-12-29T05:53:42.692Z,100.00
2022-12-29T05:54:14.903Z,100.00
2022-12-29T05:54:46.983Z,100.00
2022-12-29T05:55:19.492Z,100.00
2022-12-29T05:55:52.613Z,100.00
2022-12-29T05:56:25.622Z,89.61
2022-12-29T05:56:57.739Z,98.02
2022-12-29T05:57:29.665Z,98.41
2022-12-29T05:58:02.607Z,97.48
2022-12-29T05:58:34.811Z,94.32
2022-12-29T05:59:06.856Z,92.55
2022-12-29T05:59:39.268Z,92.41
2022-12-29T06:00:13.762Z,90.41
2022-12-29T06:00:46.741Z,90.45
2022-12-29T06:01:19.675Z,85.22
2022-12-29T06:01:52.012Z,84.49
2022-12-29T06:02:24.164Z,85.70
2022-12-29T06:02:56.290Z,84.76
2022-12-29T06:03:28.567Z,82.55
2022-12-29T06:04:01.019Z,82.11
2022-12-29T06:04:33.026Z,81.31
2022-12-29T06:05:06.220Z,80.88
2022-12-29T06:05:38.908Z,80.43
2022-12-29T06:06:10.888Z,80.20
2022-12-29T06:06:43.714Z,79.41
2022-12-29T06:07:16.786Z,79.67
2022-12-29T06:07:50.000Z,80.08
2022-12-29T06:08:22.071Z,80.25
2022-12-29T06:08:54.259Z,80.24
2022-12-29T06:09:26.873Z,80.07
2022-12-29T06:09:59.434Z,80.33
2022-12-29T06:10:31.754Z,80.00
2022-12-29T06:11:04.478Z,79.90
2022-12-29T06:11:36.415Z,79.93
2022-12-29T06:12:09.171Z,80.18
2022-12-29T06:12:42.990Z,79.47
2022-12-29T06:13:14.935Z,79.51
2022-12-29T06:13:48.085Z,79.87
2022-12-29T06:14:20.043Z,80.11
2022-12-29T06:14:52.952Z,79.87
2022-12-29T06:15:24.892Z,79.58
2022-12-29T06:15:57.044Z,80.06
2022-12-29T06:16:31.183Z,80.11
2022-12-29T06:17:04.464Z,79.89
2022-12-29T06:17:37.523Z,79.98
2022-12-29T06:18:13.734Z,79.87
2022-12-29T06:18:51.440Z,79.59
2022-12-29T06:19:23.363Z,79.49
2022-12-29T06:19:55.764Z,80.13
2022-12-29T06:20:27.757Z,80.28
2022-12-29T06:21:04.943Z,79.84
2022-12-29T06:21:38.216Z,79.58
2022-12-29T06:22:13.091Z,79.69
2022-12-29T06:22:46.431Z,79.68
2022-12-29T06:23:19.657Z,79.54
2022-12-29T06:23:51.678Z,79.57
2022-12-29T06:24:23.577Z,79.63
2022-12-29T06:25:00.048Z,79.28
2022-12-29T06:25:36.867Z,78.69
2022-12-29T06:26:09.395Z,78.80
2022-12-29T06:26:41.362Z,79.28
2022-12-29T06:27:14.842Z,86.42
2022-12-29T06:27:47.165Z,84.22
2022-12-29T06:28:19.080Z,82.97
2022-12-29T06:28:50.964Z,81.49
2022-12-29T06:29:22.859Z,80.75
2022-12-29T06:29:54.954Z,80.19
2022-12-29T06:30:27.512Z,79.62
2022-12-29T06:30:59.715Z,79.53
2022-12-29T06:31:32.914Z,79.49
2022-12-29T06:32:05.692Z,79.54
2022-12-29T06:32:38.178Z,79.21
2022-12-29T06:33:10.699Z,78.96
2022-12-29T06:33:42.630Z,78.82
2022-12-29T06:34:15.895Z,79.26
2022-12-29T06:34:47.773Z,79.19
2022-12-29T06:35:20.000Z,79.13
2022-12-29T06:35:52.129Z,79.19
2022-12-29T06:36:24.088Z,79.37
2022-12-29T06:36:56.021Z,79.59
2022-12-29T06:37:28.142Z,79.62
2022-12-29T06:38:00.135Z,79.79
2022-12-29T06:38:32.433Z,79.55
2022-12-29T06:39:04.689Z,79.52
2022-12-29T06:39:36.682Z,79.43
2022-12-29T06:40:09.478Z,79.82
2022-12-29T06:40:44.069Z,79.51
2022-12-29T06:41:16.540Z,80.05
2022-12-29T06:41:54.514Z,79.88
2022-12-29T06:42:29.561Z,80.00
2022-12-29T06:43:01.645Z,80.76
2022-12-29T06:43:34.838Z,80.74
2022-12-29T06:44:06.896Z,80.54
2022-12-29T06:44:41.441Z,80.28
2022-12-29T06:45:13.509Z,80.02
2022-12-29T06:45:45.488Z,79.52
2022-12-29T06:46:17.385Z,79.48
2022-12-29T06:46:49.495Z,79.66
2022-12-29T06:47:21.312Z,79.97
2022-12-29T06:47:53.247Z,79.86
2022-12-29T06:48:25.111Z,79.85
2022-12-29T06:48:57.291Z,80.19
2022-12-29T06:49:29.131Z,79.98
2022-12-29T06:50:01.082Z,79.96
2022-12-29T06:50:32.932Z,80.20
2022-12-29T06:51:05.004Z,79.77
2022-12-29T06:51:36.919Z,79.44
2022-12-29T06:52:12.680Z,79.10
2022-12-29T06:52:44.917Z,78.81
2022-12-29T06:53:16.770Z,78.78
2022-12-29T06:53:51.649Z,78.41
2022-12-29T06:54:23.783Z,78.29
2022-12-29T06:54:56.113Z,78.50
2022-12-29T06:55:29.216Z,80.43
2022-12-29T06:56:01.113Z,80.94
2022-12-29T06:56:33.283Z,81.31
2022-12-29T06:57:05.148Z,81.36
2022-12-29T06:57:37.036Z,80.91
2022-12-29T06:58:09.139Z,80.28
2022-12-29T06:58:41.054Z,80.21
2022-12-29T06:59:13.002Z,81.90
2022-12-29T06:59:45.260Z,80.72
2022-12-29T07:00:22.473Z,80.60
2022-12-29T07:00:54.984Z,80.10
2022-12-29T07:01:27.132Z,79.55
2022-12-29T07:01:59.137Z,79.50
2022-12-29T07:02:31.254Z,79.16
2022-12-29T07:03:03.419Z,78.83
2022-12-29T07:03:36.601Z,78.56
2022-12-29T07:04:08.871Z,78.87
2022-12-29T07:04:40.737Z,78.79
2022-12-29T07:05:14.717Z,78.73
2022-12-29T07:05:46.612Z,78.63
2022-12-29T07:06:18.506Z,78.33
2022-12-29T07:06:50.420Z,78.21
2022-12-29T07:07:22.300Z,78.21
2022-12-29T07:07:55.224Z,78.43
2022-12-29T07:08:27.073Z,79.26
2022-12-29T07:08:59.130Z,80.54
2022-12-29T07:09:31.123Z,78.52
2022-12-29T07:10:03.330Z,78.24
2022-12-29T07:10:35.580Z,78.02
2022-12-29T07:11:07.572Z,78.79
2022-12-29T07:11:39.567Z,79.20
2022-12-29T07:12:11.419Z,77.84
2022-12-29T07:12:43.275Z,77.99
2022-12-29T07:13:15.241Z,77.66
2022-12-29T07:13:47.083Z,77.75
2022-12-29T07:14:18.928Z,77.28
2022-12-29T07:14:50.888Z,77.51
2022-12-29T07:15:22.764Z,77.98
2022-12-29T07:15:54.866Z,78.00
2022-12-29T07:16:26.995Z,78.14
2022-12-29T07:16:58.928Z,77.76
2022-12-29T07:17:30.777Z,77.48
2022-12-29T07:18:02.734Z,77.28
2022-12-29T07:18:34.669Z,77.11
2022-12-29T07:19:06.829Z,76.71
2022-12-29T07:19:39.063Z,76.73
2022-12-29T07:20:11.480Z,77.08
2022-12-29T07:20:43.370Z,77.10
2022-12-29T07:21:15.548Z,77.08
2022-12-29T07:21:48.096Z,76.83
2022-12-29T07:22:19.935Z,76.33
2022-12-29T07:22:51.832Z,76.40
2022-12-29T07:23:24.249Z,76.12
2022-12-29T07:23:56.396Z,75.93
2022-12-29T07:24:28.281Z,75.70
2022-12-29T07:25:00.177Z,75.61
2022-12-29T07:25:32.168Z,75.68
2022-12-29T07:26:09.840Z,75.49
2022-12-29T07:26:42.814Z,75.37
2022-12-29T07:27:15.027Z,75.98
2022-12-29T07:27:46.869Z,76.69
2022-12-29T07:28:18.723Z,77.34
2022-12-29T07:28:50.849Z,77.07
2022-12-29T07:29:22.876Z,76.56
2022-12-29T07:29:54.714Z,76.24
2022-12-29T07:30:26.585Z,75.71
2022-12-29T07:30:58.791Z,75.41
2022-12-29T07:31:31.028Z,75.16
2022-12-29T07:32:03.300Z,74.86
2022-12-29T07:32:35.993Z,74.38
2022-12-29T07:33:07.868Z,74.83
2022-12-29T07:33:39.786Z,75.50
2022-12-29T07:34:11.671Z,75.14
2022-12-29T07:34:46.160Z,74.87
2022-12-29T07:35:18.098Z,75.25
2022-12-29T07:35:50.038Z,75.30
2022-12-29T07:36:22.220Z,74.37
2022-12-29T07:36:54.315Z,73.53
2022-12-29T07:37:26.521Z,73.24
2022-12-29T07:37:58.380Z,72.83
2022-12-29T07:38:30.219Z,72.23
2022-12-29T07:39:02.951Z,72.60
2022-12-29T07:39:34.802Z,73.15
2022-12-29T07:40:07.514Z,72.30
2022-12-29T07:40:39.400Z,71.58
2022-12-29T07:41:11.343Z,71.06